Sume, Brazil
Current Conditions -  °F | °C
As of 1:00 AM on Thursday 23 Oct 2014 (Local Time) from SBKG Reporting Station
Scattered Clouds Scattered Clouds  
Wind Chill: 68°   Ceiling: Unl
Heat Index: 68°   Visibility: 6mi
Dew Point: 68°   Wind: 3mph
Humidity: 100%   Direction: 120°ESE
Pressure: 30.03"   Gusts: NA
Location:  7.67°S, 36.88°W
Report Text: SBKG 230400Z 12003KT 9999 SCT010 20/20 Q1017
Loading
Personal Weather Stations






























Interactive Weather Map
Tropical Storm Tracking
New forecast layout! Learn more

10-Day Weather Forecast

Advertisements
Track Severe Weather on mobile